createdAt,value
2018-08-04T00:01:00.345Z,19.30
2018-08-04T00:04:04.561Z,19.30
2018-08-04T00:07:08.817Z,19.20
2018-08-04T00:10:19.860Z,19.20
2018-08-04T00:13:24.092Z,19.10
2018-08-04T00:16:28.320Z,19.10
2018-08-04T00:19:32.661Z,19.00
2018-08-04T00:22:36.847Z,19.00
2018-08-04T00:25:41.064Z,18.90
2018-08-04T00:28:45.266Z,18.90
2018-08-04T00:31:49.488Z,18.90
2018-08-04T00:34:53.705Z,18.90
2018-08-04T00:37:57.924Z,18.90
2018-08-04T00:41:02.161Z,18.80
2018-08-04T00:44:06.385Z,18.90
2018-08-04T00:47:10.613Z,18.80
2018-08-04T00:50:14.808Z,18.80
2018-08-04T00:53:19.010Z,18.80
2018-08-04T00:56:23.208Z,18.80
2018-08-04T00:59:27.497Z,18.80
2018-08-04T01:02:31.730Z,18.80
2018-08-04T01:05:35.936Z,18.80
2018-08-04T01:08:40.156Z,18.70
2018-08-04T01:11:44.365Z,18.70
2018-08-04T01:14:48.579Z,18.70
2018-08-04T01:17:52.774Z,18.70
2018-08-04T01:20:56.994Z,18.70
2018-08-04T01:24:01.181Z,18.70
2018-08-04T01:27:05.502Z,18.70
2018-08-04T01:30:09.712Z,18.70
2018-08-04T01:33:13.948Z,18.80
2018-08-04T01:36:18.155Z,18.70
2018-08-04T01:39:22.405Z,18.70
2018-08-04T01:42:26.616Z,18.80
2018-08-04T01:45:30.848Z,18.80
2018-08-04T01:48:35.047Z,18.70
2018-08-04T01:51:39.257Z,18.70
2018-08-04T01:54:43.448Z,18.70
2018-08-04T01:57:47.665Z,18.70
2018-08-04T02:03:55.913Z,18.80
2018-08-04T02:07:00.121Z,18.70
2018-08-04T02:10:04.352Z,18.60
2018-08-04T02:13:08.556Z,18.60
2018-08-04T02:16:12.748Z,18.60
2018-08-04T02:19:16.972Z,18.50
2018-08-04T02:22:21.181Z,18.50
2018-08-04T02:25:25.378Z,18.50
2018-08-04T02:28:29.608Z,18.40
2018-08-04T02:31:33.841Z,18.40
2018-08-04T02:34:38.041Z,18.40
2018-08-04T02:37:42.254Z,18.30
2018-08-04T02:40:46.479Z,18.30
2018-08-04T02:43:50.697Z,18.30
2018-08-04T02:46:55.068Z,18.30
2018-08-04T02:49:59.272Z,18.30
2018-08-04T02:53:03.844Z,18.30
2018-08-04T02:56:08.102Z,18.30
2018-08-04T02:59:12.347Z,18.30
2018-08-04T03:02:16.559Z,18.30
2018-08-04T03:05:20.785Z,18.30
2018-08-04T03:08:25.121Z,18.30
2018-08-04T03:11:29.237Z,18.20
2018-08-04T03:14:33.465Z,18.20
2018-08-04T03:17:37.648Z,18.20
2018-08-04T03:20:41.867Z,18.10
2018-08-04T03:23:46.082Z,18.10
2018-08-04T03:26:50.313Z,18.10
2018-08-04T03:29:54.561Z,18.00
2018-08-04T03:32:58.784Z,18.00
2018-08-04T03:36:03.015Z,18.00
2018-08-04T03:39:09.969Z,17.90
2018-08-04T03:42:14.212Z,17.90
2018-08-04T03:45:18.404Z,17.90
2018-08-04T03:48:22.645Z,17.90
2018-08-04T03:51:26.866Z,17.90
2018-08-04T03:54:31.107Z,17.90
2018-08-04T03:57:35.312Z,17.90
2018-08-04T04:00:39.536Z,17.80
2018-08-04T04:03:43.732Z,17.80
2018-08-04T04:06:47.989Z,17.80
2018-08-04T04:09:52.260Z,17.70
2018-08-04T04:12:56.467Z,17.70
2018-08-04T04:16:00.697Z,17.60
2018-08-04T04:19:04.908Z,17.50
2018-08-04T04:22:09.142Z,17.50
2018-08-04T04:25:13.337Z,17.40
2018-08-04T04:28:17.549Z,17.50
2018-08-04T04:31:21.748Z,17.50
2018-08-04T04:34:26.017Z,17.50
2018-08-04T04:37:30.281Z,17.50
2018-08-04T04:40:34.520Z,17.60
2018-08-04T04:43:38.761Z,17.60
2018-08-04T04:46:42.989Z,17.70
2018-08-04T04:49:47.218Z,17.70
2018-08-04T04:52:51.629Z,17.80
2018-08-04T04:55:55.849Z,17.80
2018-08-04T04:59:00.041Z,17.80
2018-08-04T05:02:04.318Z,17.80
2018-08-04T05:05:09.294Z,17.80
2018-08-04T05:08:13.533Z,17.80
2018-08-04T05:11:17.728Z,17.80
2018-08-04T05:14:21.952Z,17.80
2018-08-04T05:17:26.168Z,17.80
2018-08-04T05:20:30.353Z,17.80
2018-08-04T05:23:34.584Z,17.90
2018-08-04T05:26:38.798Z,17.90
2018-08-04T05:29:43.049Z,18.00
2018-08-04T05:32:47.258Z,18.10
2018-08-04T05:35:51.491Z,18.10
2018-08-04T05:38:55.690Z,18.20
2018-08-04T05:41:59.910Z,18.40
2018-08-04T05:45:04.162Z,18.50
2018-08-04T05:48:08.348Z,18.60
2018-08-04T05:51:12.613Z,18.80
2018-08-04T05:54:16.798Z,19.00
2018-08-04T05:57:21.017Z,19.10
2018-08-04T06:00:25.234Z,19.20
2018-08-04T06:03:29.474Z,19.30
2018-08-04T06:06:33.716Z,19.40
2018-08-04T06:09:37.932Z,19.60
2018-08-04T06:12:42.178Z,19.60
2018-08-04T06:15:46.394Z,19.70
2018-08-04T06:18:50.803Z,19.90
2018-08-04T06:21:55.044Z,19.90
2018-08-04T06:24:59.276Z,20.10
2018-08-04T06:28:03.501Z,20.10
2018-08-04T06:31:07.731Z,20.30
2018-08-04T06:34:11.930Z,20.40
2018-08-04T06:37:16.149Z,20.50
2018-08-04T06:40:20.381Z,20.50
2018-08-04T06:43:24.576Z,20.70
2018-08-04T06:46:28.777Z,20.80
2018-08-04T06:49:33.002Z,20.80
2018-08-04T06:52:37.349Z,20.90
2018-08-04T06:55:41.622Z,20.90
2018-08-04T06:58:45.844Z,21.00
2018-08-04T07:01:50.041Z,21.00
2018-08-04T07:04:54.247Z,21.10
2018-08-04T07:07:58.454Z,21.20
2018-08-04T07:11:02.644Z,21.40
2018-08-04T07:14:07.978Z,21.70
2018-08-04T07:17:12.208Z,21.80
2018-08-04T07:20:16.441Z,21.80
2018-08-04T07:23:20.660Z,21.80
2018-08-04T07:26:24.860Z,21.90
2018-08-04T07:29:29.111Z,22.10
2018-08-04T07:35:37.344Z,22.30
2018-08-04T07:38:41.559Z,22.40
2018-08-04T07:41:45.804Z,22.50
2018-08-04T07:44:50.053Z,22.50
2018-08-04T07:47:54.274Z,22.70
2018-08-04T07:50:58.522Z,22.70
2018-08-04T07:54:02.756Z,22.70
2018-08-04T07:57:07.012Z,22.60
2018-08-04T08:00:11.202Z,22.60
2018-08-04T08:03:15.433Z,22.50
2018-08-04T08:06:19.650Z,22.50
2018-08-04T08:09:23.909Z,22.60
2018-08-04T08:12:28.170Z,22.80
2018-08-04T08:18:36.380Z,23.00
2018-08-04T08:21:40.657Z,23.20
2018-08-04T08:24:44.927Z,23.20
2018-08-04T08:27:49.178Z,23.30
2018-08-04T08:30:53.429Z,23.20
2018-08-04T08:33:57.763Z,23.20
2018-08-04T08:37:02.117Z,23.30
2018-08-04T08:40:07.034Z,23.40
2018-08-04T08:43:11.336Z,23.60
2018-08-04T08:46:15.633Z,23.70
2018-08-04T08:49:19.978Z,23.90
2018-08-04T08:52:24.287Z,23.90
2018-08-04T08:55:28.589Z,23.90
2018-08-04T08:58:32.861Z,23.70
2018-08-04T09:01:37.162Z,23.70
2018-08-04T09:04:41.615Z,23.60
2018-08-04T09:07:45.932Z,23.50
2018-08-04T09:10:50.206Z,23.40
2018-08-04T09:13:54.494Z,23.40
2018-08-04T09:16:58.806Z,23.40
2018-08-04T09:20:03.137Z,23.60
2018-08-04T09:23:07.482Z,23.70
2018-08-04T09:26:11.732Z,23.90
2018-08-04T09:29:16.034Z,24.10
2018-08-04T09:32:20.313Z,24.40
2018-08-04T09:35:24.568Z,24.30
2018-08-04T09:38:28.773Z,24.50
2018-08-04T09:41:32.992Z,24.40
2018-08-04T09:44:37.185Z,24.50
2018-08-04T09:47:41.935Z,24.60
2018-08-04T09:50:46.174Z,24.70
2018-08-04T09:53:50.406Z,24.60
2018-08-04T09:56:54.620Z,24.70
2018-08-04T09:59:58.908Z,24.50
2018-08-04T10:03:03.128Z,24.40
2018-08-04T10:06:07.397Z,24.40
2018-08-04T10:09:12.581Z,24.50
2018-08-04T10:12:16.772Z,24.40
2018-08-04T10:18:24.944Z,24.70
2018-08-04T10:21:29.182Z,24.90
2018-08-04T10:24:33.766Z,25.00
2018-08-04T10:27:37.988Z,25.10
2018-08-04T10:30:42.245Z,25.20
2018-08-04T10:33:46.434Z,25.40
2018-08-04T10:36:50.644Z,25.40
2018-08-04T10:39:54.921Z,25.30
2018-08-04T10:42:59.124Z,25.30
2018-08-04T10:46:03.332Z,25.40
2018-08-04T10:49:07.551Z,25.50
2018-08-04T10:52:11.760Z,25.40
2018-08-04T10:55:15.983Z,25.50
2018-08-04T10:58:20.221Z,25.50
2018-08-04T11:01:24.409Z,25.60
2018-08-04T11:04:28.634Z,25.70
2018-08-04T11:07:32.845Z,25.70
2018-08-04T11:10:37.049Z,25.70
2018-08-04T11:13:41.236Z,25.70
2018-08-04T11:16:45.464Z,25.70
2018-08-04T11:19:49.645Z,25.70
2018-08-04T11:22:53.868Z,25.60
2018-08-04T11:25:58.256Z,25.70
2018-08-04T11:29:02.465Z,25.70
2018-08-04T11:32:06.954Z,25.70
2018-08-04T11:35:11.166Z,25.80
2018-08-04T11:38:15.517Z,25.90
2018-08-04T11:41:19.749Z,26.00
2018-08-04T11:44:23.962Z,25.90
2018-08-04T11:47:28.179Z,25.70
2018-08-04T11:50:32.391Z,25.60
2018-08-04T11:53:36.613Z,25.60
2018-08-04T11:56:40.829Z,25.70
2018-08-04T11:59:45.008Z,25.90
2018-08-04T12:02:49.649Z,26.00
2018-08-04T12:05:54.356Z,25.90
2018-08-04T12:08:58.561Z,25.80
2018-08-04T12:12:02.778Z,25.90
2018-08-04T12:15:07.024Z,26.10
2018-08-04T12:18:11.280Z,26.20
2018-08-04T12:21:15.453Z,26.40
2018-08-04T12:24:19.688Z,26.40
2018-08-04T12:27:23.925Z,26.50
2018-08-04T12:30:28.132Z,26.60
2018-08-04T12:33:32.353Z,26.50
2018-08-04T12:36:36.560Z,26.30
2018-08-04T12:39:40.765Z,26.30
2018-08-04T12:42:44.988Z,26.20
2018-08-04T12:45:49.208Z,26.20
2018-08-04T12:48:53.414Z,26.20
2018-08-04T12:51:57.615Z,26.20
2018-08-04T12:55:01.837Z,26.10
2018-08-04T13:01:10.876Z,26.00
2018-08-04T13:04:15.092Z,25.90
2018-08-04T13:07:19.310Z,25.90
2018-08-04T13:10:23.589Z,25.70
2018-08-04T13:13:27.812Z,25.70
2018-08-04T13:16:32.133Z,25.60
2018-08-04T13:19:36.946Z,25.50
2018-08-04T13:22:41.148Z,25.40
2018-08-04T13:25:45.349Z,25.60
2018-08-04T13:28:49.521Z,25.60
2018-08-04T13:31:53.741Z,25.60
2018-08-04T13:34:58.069Z,25.70
2018-08-04T13:38:02.288Z,25.70
2018-08-04T13:41:06.513Z,25.50
2018-08-04T13:44:10.750Z,25.40
2018-08-04T13:47:14.952Z,25.40
2018-08-04T13:50:19.246Z,25.30
2018-08-04T13:53:23.417Z,25.10
2018-08-04T13:56:27.648Z,25.00
2018-08-04T13:59:31.878Z,25.10
2018-08-04T14:02:36.216Z,25.20
2018-08-04T14:05:40.413Z,25.30
2018-08-04T14:08:44.653Z,25.40
2018-08-04T14:11:48.837Z,25.40
2018-08-04T14:14:53.061Z,25.40
2018-08-04T14:17:57.258Z,25.50
2018-08-04T14:21:01.490Z,25.40
2018-08-04T14:24:05.761Z,25.40
2018-08-04T14:27:10.015Z,25.30
2018-08-04T14:30:14.216Z,25.20
2018-08-04T14:33:18.425Z,25.10
2018-08-04T14:36:22.605Z,25.00
2018-08-04T14:39:26.802Z,24.90
2018-08-04T14:42:31.024Z,24.90
2018-08-04T14:45:35.217Z,25.00
2018-08-04T14:48:39.428Z,25.10
2018-08-04T14:51:43.760Z,25.20
2018-08-04T14:54:47.965Z,25.10
2018-08-04T14:57:52.154Z,25.10
2018-08-04T15:00:56.502Z,25.00
2018-08-04T15:04:00.701Z,25.10
2018-08-04T15:07:04.930Z,25.00
2018-08-04T15:10:09.192Z,24.90
2018-08-04T15:13:13.429Z,24.80
2018-08-04T15:16:17.648Z,24.70
2018-08-04T15:19:21.891Z,24.60
2018-08-04T15:22:26.118Z,24.50
2018-08-04T15:25:30.365Z,24.40
2018-08-04T15:28:34.575Z,24.40
2018-08-04T15:31:38.784Z,24.30
2018-08-04T15:34:42.969Z,24.30
2018-08-04T15:37:47.187Z,24.20
2018-08-04T15:40:51.381Z,24.20
2018-08-04T15:43:55.578Z,24.10
2018-08-04T15:46:59.792Z,24.10
2018-08-04T15:50:04.223Z,24.10
2018-08-04T15:53:08.445Z,24.00
2018-08-04T15:56:12.649Z,23.90
2018-08-04T15:59:16.877Z,23.90
2018-08-04T16:02:21.108Z,23.90
2018-08-04T16:05:25.341Z,23.90
2018-08-04T16:08:30.152Z,23.90
2018-08-04T16:11:34.402Z,23.90
2018-08-04T16:14:38.598Z,23.80
2018-08-04T16:17:42.929Z,23.70
2018-08-04T16:20:47.141Z,23.70
2018-08-04T16:23:51.360Z,23.60
2018-08-04T16:26:55.573Z,23.50
2018-08-04T16:29:59.780Z,23.30
2018-08-04T16:33:04.010Z,23.30
2018-08-04T16:36:08.233Z,23.20
2018-08-04T16:39:12.444Z,23.00
2018-08-04T16:42:16.652Z,22.90
2018-08-04T16:45:20.864Z,23.00
2018-08-04T16:48:25.072Z,23.00
2018-08-04T16:51:29.277Z,23.00
2018-08-04T16:54:33.512Z,22.90
2018-08-04T16:57:37.725Z,22.90
2018-08-04T17:00:41.941Z,22.90
2018-08-04T17:03:46.144Z,22.90
2018-08-04T17:06:50.377Z,22.90
2018-08-04T17:09:54.609Z,22.80
2018-08-04T17:12:58.804Z,22.70
2018-08-04T17:16:03.042Z,22.70
2018-08-04T17:19:07.269Z,22.80
2018-08-04T17:22:11.495Z,22.80
2018-08-04T17:25:15.712Z,22.80
2018-08-04T17:28:19.938Z,22.80
2018-08-04T17:31:24.145Z,22.70
2018-08-04T17:34:28.373Z,22.70
2018-08-04T17:37:32.795Z,22.60
2018-08-04T17:40:36.952Z,22.60
2018-08-04T17:43:41.172Z,22.70
2018-08-04T17:46:45.389Z,22.60
2018-08-04T17:49:49.653Z,22.60
2018-08-04T17:52:53.845Z,22.60
2018-08-04T17:55:58.058Z,22.60
2018-08-04T17:59:02.258Z,22.50
2018-08-04T18:02:06.473Z,22.50
2018-08-04T18:05:10.730Z,22.40
2018-08-04T18:08:14.949Z,22.40
2018-08-04T18:11:19.212Z,22.30
2018-08-04T18:14:23.390Z,22.30
2018-08-04T18:17:27.596Z,22.30
2018-08-04T18:20:31.786Z,22.30
2018-08-04T18:23:36.013Z,22.20
2018-08-04T18:26:40.194Z,22.20
2018-08-04T18:29:44.454Z,22.10
2018-08-04T18:32:48.680Z,22.00
2018-08-04T18:35:52.892Z,22.00
2018-08-04T18:38:57.166Z,21.90
2018-08-04T18:42:01.366Z,21.80
2018-08-04T18:45:06.617Z,21.80
2018-08-04T18:48:09.903Z,21.70
2018-08-04T18:51:14.108Z,21.70
2018-08-04T18:54:18.337Z,21.60
2018-08-04T18:57:22.554Z,21.50
2018-08-04T19:00:26.921Z,21.40
2018-08-04T19:03:31.248Z,21.40
2018-08-04T19:06:35.527Z,21.30
2018-08-04T19:09:39.836Z,21.20
2018-08-04T19:12:44.216Z,21.20
2018-08-04T19:18:52.681Z,21.00
2018-08-04T19:21:56.937Z,21.00
2018-08-04T19:25:01.254Z,21.00
2018-08-04T19:28:05.626Z,20.80
2018-08-04T19:31:09.872Z,20.80
2018-08-04T19:34:14.257Z,20.70
2018-08-04T19:37:18.511Z,20.70
2018-08-04T19:40:22.809Z,20.70
2018-08-04T19:43:27.057Z,20.60
2018-08-04T19:46:31.324Z,20.50
2018-08-04T19:49:35.652Z,20.50
2018-08-04T19:52:39.898Z,20.40
2018-08-04T19:55:44.200Z,20.40
2018-08-04T19:58:48.469Z,20.30
2018-08-04T20:01:52.740Z,20.40
2018-08-04T20:04:57.048Z,20.30
2018-08-04T20:08:01.289Z,20.20
2018-08-04T20:11:05.548Z,20.20
2018-08-04T20:14:09.833Z,20.20
2018-08-04T20:17:14.270Z,20.10
2018-08-04T20:20:18.597Z,20.00
2018-08-04T20:23:22.845Z,20.00
2018-08-04T20:26:27.142Z,20.00
2018-08-04T20:29:31.538Z,19.90
2018-08-04T20:32:35.809Z,19.90
2018-08-04T20:38:44.141Z,19.80
2018-08-04T20:41:48.430Z,19.70
2018-08-04T20:44:52.697Z,19.70
2018-08-04T20:47:56.985Z,19.60
2018-08-04T20:51:01.246Z,19.60
2018-08-04T20:54:05.533Z,19.60
2018-08-04T20:57:09.797Z,19.50
2018-08-04T21:00:14.021Z,19.50
2018-08-04T21:03:18.246Z,19.40
2018-08-04T21:06:22.520Z,19.40
2018-08-04T21:09:26.774Z,19.40
2018-08-04T21:12:31.032Z,19.30
2018-08-04T21:15:35.213Z,19.30
2018-08-04T21:18:39.443Z,19.30
2018-08-04T21:21:43.658Z,19.20
2018-08-04T21:24:47.885Z,19.10
2018-08-04T21:27:52.113Z,19.10
2018-08-04T21:30:56.376Z,19.00
2018-08-04T21:34:00.569Z,19.00
2018-08-04T21:37:04.815Z,18.90
2018-08-04T21:40:09.065Z,18.80
2018-08-04T21:43:13.284Z,18.80
2018-08-04T21:46:17.516Z,18.70
2018-08-04T21:49:21.830Z,18.70
2018-08-04T21:52:26.171Z,18.70
2018-08-04T21:55:30.313Z,18.60
2018-08-04T21:58:34.514Z,18.50
2018-08-04T22:01:38.864Z,18.50
2018-08-04T22:04:42.977Z,18.40
2018-08-04T22:08:04.361Z,18.40
2018-08-04T22:11:08.571Z,18.40
2018-08-04T22:14:12.900Z,18.30
2018-08-04T22:17:17.098Z,18.30
2018-08-04T22:20:22.341Z,18.20
2018-08-04T22:23:26.536Z,18.20
2018-08-04T22:26:30.726Z,18.20
2018-08-04T22:29:34.948Z,18.10
2018-08-04T22:32:39.236Z,18.10
2018-08-04T22:35:43.449Z,18.00
2018-08-04T22:38:47.669Z,18.00
2018-08-04T22:41:51.885Z,18.00
2018-08-04T22:45:08.249Z,17.90
2018-08-04T22:48:12.453Z,17.90
2018-08-04T22:51:25.042Z,17.90
2018-08-04T22:54:29.241Z,17.80
2018-08-04T22:57:33.466Z,17.80
2018-08-04T23:00:37.674Z,17.70
2018-08-04T23:03:41.908Z,17.60
2018-08-04T23:06:46.108Z,17.60
2018-08-04T23:09:50.358Z,17.60
2018-08-04T23:12:54.629Z,17.60
2018-08-04T23:15:58.888Z,17.60
2018-08-04T23:19:03.094Z,17.50
2018-08-04T23:22:07.339Z,17.50
2018-08-04T23:25:11.561Z,17.40
2018-08-04T23:28:15.769Z,17.40
2018-08-04T23:31:20.000Z,17.40
2018-08-04T23:34:24.218Z,17.30
2018-08-04T23:37:28.426Z,17.30
2018-08-04T23:40:32.651Z,17.30
2018-08-04T23:43:36.886Z,17.30
2018-08-04T23:46:41.117Z,17.30
2018-08-04T23:49:46.136Z,17.20
2018-08-04T23:52:50.366Z,17.20
2018-08-04T23:55:54.590Z,17.20
2018-08-04T23:58:58.809Z,17.20
